Time;durP1;ratioP1;P1;durP2;ratioP2;P2;SDS_P1;SDS_P2;PMS_P1;PMS_P2;Temp;Humidity;BMP_temperature;BMP_pressure;BME280_temperature;BME280_humidity;BME280_pressure;Samples;Min_cycle;Max_cycle;Signal;HPM_P1;HPM_P2
2022/07/22 00:01:36;;;;;;;4.90;3.15;;;14.90;99.90;;;;;;5040471;28;20589;-71
2022/07/22 00:04:03;;;;;;;10.90;3.28;;;14.90;99.90;;;;;;5025085;28;20093;-72
2022/07/22 00:06:29;;;;;;;9.13;4.25;;;15.00;99.90;;;;;;5050263;28;20035;-72
2022/07/22 00:08:55;;;;;;;12.43;3.10;;;14.90;99.90;;;;;;5060241;28;20406;-72
2022/07/22 00:11:22;;;;;;;9.32;3.72;;;15.00;99.90;;;;;;5050353;28;20033;-72
2022/07/22 00:13:48;;;;;;;13.70;4.70;;;15.00;99.90;;;;;;5061300;28;20032;-72
2022/07/22 00:16:14;;;;;;;11.27;4.22;;;15.00;99.90;;;;;;5048701;28;20120;-72
2022/07/22 00:18:40;;;;;;;10.15;3.83;;;15.00;99.90;;;;;;5061254;28;20394;-72
2022/07/22 00:21:05;;;;;;;8.43;3.97;;;15.10;99.90;;;;;;5047116;28;20118;-73
2022/07/22 00:23:31;;;;;;;9.90;3.95;;;15.00;99.90;;;;;;5063061;28;20071;-74
2022/07/22 00:25:57;;;;;;;10.07;3.80;;;15.10;99.90;;;;;;5037756;28;20470;-73
2022/07/22 00:28:23;;;;;;;8.75;4.07;;;15.00;99.90;;;;;;5027815;28;20459;-73
2022/07/22 00:30:49;;;;;;;10.23;3.30;;;15.00;99.90;;;;;;5060636;28;20032;-73
2022/07/22 00:33:15;;;;;;;8.80;3.70;;;15.00;99.90;;;;;;5024895;28;20047;-73
2022/07/22 00:35:40;;;;;;;13.27;4.50;;;14.90;99.90;;;;;;5047725;28;20111;-73
2022/07/22 00:38:06;;;;;;;7.05;3.75;;;14.90;99.90;;;;;;5055980;28;20032;-73
2022/07/22 00:40:32;;;;;;;10.02;3.95;;;14.90;99.90;;;;;;5039671;28;20052;-73
2022/07/22 00:42:57;;;;;;;14.85;4.35;;;14.80;99.90;;;;;;5054276;28;20482;-72
2022/07/22 00:45:23;;;;;;;9.38;4.05;;;14.80;99.90;;;;;;5005736;28;20040;-72
2022/07/22 00:47:49;;;;;;;10.18;4.93;;;14.80;99.90;;;;;;5053319;28;20066;-73
2022/07/22 00:50:14;;;;;;;12.63;5.25;;;14.80;99.90;;;;;;5065832;28;20183;-73
2022/07/22 00:52:42;;;;;;;10.45;4.78;;;14.80;99.90;;;;;;5048450;28;20124;-73
2022/07/22 00:55:08;;;;;;;14.32;4.47;;;14.80;99.90;;;;;;5058916;28;20036;-73
2022/07/22 00:57:34;;;;;;;13.52;4.93;;;14.70;99.90;;;;;;5061951;28;20119;-73
2022/07/22 01:00:00;;;;;;;17.02;4.90;;;14.70;99.90;;;;;;5043162;28;20159;-72
2022/07/22 01:02:26;;;;;;;10.88;4.90;;;14.70;99.90;;;;;;5034834;28;20055;-72
2022/07/22 01:04:52;;;;;;;16.77;5.50;;;14.70;99.90;;;;;;5062345;28;20041;-72
2022/07/22 01:07:17;;;;;;;12.35;5.45;;;14.70;99.90;;;;;;5048532;28;20039;-73
2022/07/22 01:09:45;;;;;;;17.67;5.40;;;14.70;99.90;;;;;;5047592;28;20028;-72
2022/07/22 01:12:11;;;;;;;10.43;4.70;;;14.70;99.90;;;;;;5059769;28;20071;-72
2022/07/22 01:14:37;;;;;;;12.23;4.78;;;14.70;99.90;;;;;;5060477;28;20037;-73
2022/07/22 01:17:03;;;;;;;12.68;5.28;;;14.70;99.90;;;;;;5029839;28;20042;-72
2022/07/22 01:19:29;;;;;;;11.50;5.15;;;14.70;99.90;;;;;;5047840;28;20051;-73
2022/07/22 01:21:55;;;;;;;9.55;5.20;;;14.70;99.90;;;;;;5058061;28;20112;-73
2022/07/22 01:24:21;;;;;;;19.88;5.22;;;14.70;99.90;;;;;;5066374;28;20544;-73
2022/07/22 01:26:46;;;;;;;17.77;6.20;;;14.70;99.90;;;;;;5051828;28;20490;-72
2022/07/22 01:29:12;;;;;;;15.50;5.95;;;14.70;99.90;;;;;;5039860;28;20108;-72
2022/07/22 01:31:38;;;;;;;14.38;5.28;;;14.70;99.90;;;;;;5034345;28;20039;-73
2022/07/22 01:34:04;;;;;;;10.45;5.68;;;14.70;99.90;;;;;;5056500;28;20051;-73
2022/07/22 01:36:30;;;;;;;12.18;5.32;;;14.70;99.90;;;;;;5024800;28;20049;-72
2022/07/22 01:38:56;;;;;;;19.60;6.10;;;14.70;99.90;;;;;;5052499;28;20048;-73
2022/07/22 01:41:22;;;;;;;15.68;5.78;;;14.70;99.90;;;;;;5047711;28;20067;-72
2022/07/22 01:43:51;;;;;;;22.35;5.93;;;14.70;99.90;;;;;;5057837;28;20119;-72
2022/07/22 01:46:18;;;;;;;17.30;5.95;;;14.70;99.90;;;;;;5051786;28;20115;-72
2022/07/22 01:49:08;;;;;;;19.17;6.60;;;14.70;99.90;;;;;;5040773;28;20056;-72
2022/07/22 01:51:34;;;;;;;18.63;6.30;;;14.70;99.90;;;;;;5020347;28;20052;-72
2022/07/22 01:54:00;;;;;;;10.80;5.40;;;14.70;99.90;;;;;;5015821;28;20041;-72
2022/07/22 01:56:25;;;;;;;17.40;6.22;;;14.70;99.90;;;;;;5027635;28;20049;-72
2022/07/22 01:58:51;;;;;;;10.48;6.25;;;14.70;99.90;;;;;;5002088;28;20132;-73
2022/07/22 02:01:16;;;;;;;18.80;5.43;;;14.70;99.90;;;;;;5016342;28;20605;-72
2022/07/22 02:03:42;;;;;;;21.27;5.18;;;14.70;99.90;;;;;;5039899;28;20049;-72
2022/07/22 02:06:08;;;;;;;11.65;5.93;;;14.70;99.90;;;;;;5023170;28;20098;-72
2022/07/22 02:08:34;;;;;;;14.48;5.70;;;14.70;99.90;;;;;;5043287;28;20462;-72
2022/07/22 02:10:59;;;;;;;16.95;6.38;;;14.70;99.90;;;;;;5017827;28;20041;-72
2022/07/22 02:13:25;;;;;;;18.40;5.65;;;14.70;99.90;;;;;;5030860;28;20040;-73
2022/07/22 02:15:51;;;;;;;18.25;5.85;;;14.70;99.90;;;;;;5033986;28;20403;-72
2022/07/22 02:18:18;;;;;;;19.33;5.93;;;14.70;99.90;;;;;;5045947;28;20033;-72
2022/07/22 02:20:44;;;;;;;18.58;5.53;;;14.70;99.90;;;;;;5049460;28;20056;-72
2022/07/22 02:23:13;;;;;;;13.68;6.30;;;14.70;99.90;;;;;;5064897;28;20481;-73
2022/07/22 02:25:40;;;;;;;15.93;4.90;;;14.70;99.90;;;;;;5048033;28;20032;-72
2022/07/22 02:28:06;;;;;;;12.95;6.13;;;14.60;99.90;;;;;;5067345;28;20032;-72
2022/07/22 02:30:32;;;;;;;15.25;5.63;;;14.60;99.90;;;;;;5065311;28;20497;-72
2022/07/22 02:32:58;;;;;;;16.05;5.10;;;14.60;99.90;;;;;;5018941;28;20037;-72
2022/07/22 02:35:25;;;;;;;15.70;5.28;;;14.60;99.90;;;;;;5061064;28;20064;-72
2022/07/22 02:37:51;;;;;;;14.85;5.25;;;14.60;99.90;;;;;;5041699;28;20040;-72
2022/07/22 02:40:17;;;;;;;13.70;4.80;;;14.50;99.90;;;;;;5066673;28;20055;-72
2022/07/22 02:42:43;;;;;;;22.60;5.35;;;14.50;99.90;;;;;;5064243;28;20082;-72
2022/07/22 02:45:09;;;;;;;18.52;5.10;;;14.50;99.90;;;;;;5064303;28;20079;-73
2022/07/22 02:47:35;;;;;;;17.52;5.32;;;14.50;99.90;;;;;;5058931;28;20497;-72
2022/07/22 02:50:01;;;;;;;13.30;5.18;;;14.40;99.90;;;;;;5065998;28;20036;-72
2022/07/22 02:52:26;;;;;;;16.50;5.10;;;14.40;99.90;;;;;;5027249;28;20490;-72
2022/07/22 02:54:52;;;;;;;14.43;5.20;;;14.40;99.90;;;;;;5045748;28;20076;-72
2022/07/22 02:57:18;;;;;;;15.30;5.32;;;14.40;99.90;;;;;;5053574;28;20041;-72
2022/07/22 02:59:44;;;;;;;16.50;5.93;;;14.40;99.90;;;;;;5037799;28;20040;-72
2022/07/22 03:02:10;;;;;;;13.38;4.80;;;14.40;99.90;;;;;;5031463;28;20040;-72
2022/07/22 03:04:35;;;;;;;13.60;4.75;;;14.40;99.90;;;;;;5050011;28;20533;-72
2022/07/22 03:07:01;;;;;;;13.80;4.38;;;14.40;99.90;;;;;;5046261;28;20037;-72
2022/07/22 03:09:27;;;;;;;19.30;5.10;;;14.40;99.90;;;;;;5064340;28;20110;-72
2022/07/22 03:11:52;;;;;;;25.02;5.60;;;14.40;99.90;;;;;;5057736;28;20409;-72
2022/07/22 03:14:18;;;;;;;14.57;5.40;;;14.40;99.90;;;;;;5028990;28;20496;-72
2022/07/22 03:16:44;;;;;;;17.52;5.35;;;14.40;99.90;;;;;;5021884;28;20063;-72
2022/07/22 03:19:11;;;;;;;14.30;4.40;;;14.40;99.90;;;;;;5032142;28;20044;-72
2022/07/22 03:21:36;;;;;;;10.65;5.28;;;14.40;99.90;;;;;;5039374;28;20040;-72
2022/07/22 03:24:02;;;;;;;9.93;4.45;;;14.40;99.90;;;;;;5050957;28;20044;-72
2022/07/22 03:26:28;;;;;;;10.65;4.40;;;14.40;99.90;;;;;;5027449;28;20684;-72
2022/07/22 03:28:54;;;;;;;16.27;4.75;;;14.40;99.90;;;;;;5049661;28;20630;-72
2022/07/22 03:31:19;;;;;;;21.58;4.68;;;14.40;99.90;;;;;;5044609;28;21342;-72
2022/07/22 03:33:45;;;;;;;11.73;4.28;;;14.40;99.90;;;;;;5045258;28;20045;-72
2022/07/22 03:36:11;;;;;;;15.82;5.10;;;14.40;99.90;;;;;;5032863;28;20044;-72
2022/07/22 03:38:37;;;;;;;13.95;4.93;;;14.40;99.90;;;;;;5053785;28;20402;-72
2022/07/22 03:41:03;;;;;;;15.38;4.78;;;14.30;99.90;;;;;;5050478;28;20809;-72
2022/07/22 03:43:30;;;;;;;13.95;4.32;;;14.30;99.90;;;;;;5044380;28;20036;-72
2022/07/22 03:45:56;;;;;;;11.25;4.45;;;14.40;99.90;;;;;;5066964;28;20095;-73
2022/07/22 03:48:21;;;;;;;13.27;4.53;;;14.40;99.90;;;;;;5048400;28;20071;-72
2022/07/22 03:50:49;;;;;;;9.98;3.65;;;14.30;99.90;;;;;;5052159;28;20486;-72
2022/07/22 03:53:15;;;;;;;7.95;4.15;;;14.30;99.90;;;;;;5061659;28;20119;-72
2022/07/22 03:55:41;;;;;;;12.25;4.13;;;14.30;99.90;;;;;;5048890;28;20502;-72
2022/07/22 03:58:07;;;;;;;14.32;4.25;;;14.30;99.90;;;;;;5064963;28;20039;-72
2022/07/22 04:00:32;;;;;;;13.00;4.18;;;14.30;99.90;;;;;;5062113;28;20036;-72
2022/07/22 04:02:58;;;;;;;11.32;4.55;;;14.30;99.90;;;;;;5031549;28;20043;-72
2022/07/22 04:05:24;;;;;;;9.05;3.88;;;14.20;99.90;;;;;;5003061;28;20542;-72
2022/07/22 04:07:49;;;;;;;11.85;3.50;;;14.20;99.90;;;;;;5049570;28;20052;-72
2022/07/22 04:10:15;;;;;;;10.27;4.25;;;14.20;99.90;;;;;;5048937;28;20452;-71
2022/07/22 04:12:41;;;;;;;7.70;4.00;;;14.20;99.90;;;;;;5050790;28;20072;-72
2022/07/22 04:15:08;;;;;;;13.80;4.10;;;14.20;99.90;;;;;;5038090;28;20473;-72
2022/07/22 04:17:34;;;;;;;8.57;3.72;;;14.10;99.90;;;;;;5057656;28;20105;-72
2022/07/22 04:20:00;;;;;;;12.32;4.22;;;14.20;99.90;;;;;;5065197;28;20047;-72
2022/07/22 04:22:29;;;;;;;10.45;3.40;;;14.20;99.90;;;;;;5050000;28;20039;-72
2022/07/22 04:24:55;;;;;;;9.63;3.75;;;14.20;99.90;;;;;;5051873;28;20036;-72
2022/07/22 04:27:21;;;;;;;7.97;3.28;;;14.10;99.90;;;;;;5061224;28;20047;-71
2022/07/22 04:29:47;;;;;;;6.30;3.00;;;14.10;99.90;;;;;;5066369;28;20058;-72
2022/07/22 04:32:13;;;;;;;10.43;3.00;;;14.10;99.90;;;;;;5034293;28;20083;-72
2022/07/22 04:34:38;;;;;;;9.80;4.50;;;14.10;99.90;;;;;;5041199;28;20045;-72
2022/07/22 04:37:04;;;;;;;8.85;3.33;;;14.10;99.90;;;;;;5038378;28;20044;-72
2022/07/22 04:39:30;;;;;;;7.85;3.53;;;14.10;99.90;;;;;;5035228;28;20511;-72
2022/07/22 04:41:57;;;;;;;8.95;3.00;;;14.10;99.90;;;;;;5056662;28;20037;-72
2022/07/22 04:44:23;;;;;;;13.13;3.67;;;14.10;99.90;;;;;;5051540;28;20027;-72
2022/07/22 04:46:48;;;;;;;9.32;3.53;;;14.10;99.90;;;;;;5026692;28;20504;-72
2022/07/22 04:49:14;;;;;;;10.80;3.75;;;14.10;99.90;;;;;;5050450;28;20043;-71
2022/07/22 04:51:40;;;;;;;11.27;3.47;;;14.10;99.90;;;;;;5048758;28;20044;-72
2022/07/22 04:54:06;;;;;;;8.40;3.50;;;14.10;99.90;;;;;;5045323;28;20050;-71
2022/07/22 04:56:31;;;;;;;11.05;3.60;;;14.10;99.90;;;;;;5044828;28;20529;-72
2022/07/22 04:58:57;;;;;;;9.48;3.83;;;14.20;99.90;;;;;;5039611;28;20080;-71
2022/07/22 05:01:23;;;;;;;8.65;3.47;;;14.10;99.90;;;;;;5054987;28;20165;-72
2022/07/22 05:03:49;;;;;;;11.30;3.60;;;14.20;99.90;;;;;;5029354;28;20097;-71
2022/07/22 05:06:15;;;;;;;8.38;3.30;;;14.20;99.90;;;;;;5058817;28;20435;-71
2022/07/22 05:08:40;;;;;;;9.73;3.63;;;14.20;99.90;;;;;;5041936;28;20116;-72
2022/07/22 05:11:06;;;;;;;10.70;3.58;;;14.30;99.90;;;;;;5061671;28;20485;-72
2022/07/22 05:13:33;;;;;;;9.80;4.10;;;14.30;99.90;;;;;;5034000;28;20063;-72
2022/07/22 05:16:03;;;;;;;13.25;4.10;;;14.30;99.90;;;;;;5046493;28;20454;-71
2022/07/22 05:18:29;;;;;;;12.88;3.38;;;14.30;99.90;;;;;;5063745;28;20110;-72
2022/07/22 05:20:55;;;;;;;13.38;3.70;;;14.30;99.90;;;;;;5065687;28;20064;-72
2022/07/22 05:23:21;;;;;;;9.35;3.60;;;14.30;99.90;;;;;;5047568;28;20047;-72
2022/07/22 05:25:46;;;;;;;12.85;4.38;;;14.30;99.90;;;;;;5044856;28;20032;-72
2022/07/22 05:28:13;;;;;;;7.50;3.08;;;14.30;99.90;;;;;;5033436;28;20538;-72
2022/07/22 05:30:38;;;;;;;12.48;3.70;;;14.30;99.90;;;;;;5036374;28;20071;-72
2022/07/22 05:33:04;;;;;;;9.80;3.20;;;14.40;99.90;;;;;;5041215;28;20090;-71
2022/07/22 05:35:30;;;;;;;9.38;3.70;;;14.30;99.90;;;;;;5058619;28;20056;-72
2022/07/22 05:37:56;;;;;;;10.20;3.38;;;14.40;99.90;;;;;;5044746;28;20048;-72
2022/07/22 05:40:21;;;;;;;11.20;3.35;;;14.40;99.90;;;;;;5063822;28;20039;-72
2022/07/22 05:42:47;;;;;;;10.25;3.80;;;14.40;99.90;;;;;;5065047;28;20035;-72
2022/07/22 05:45:13;;;;;;;10.52;3.50;;;14.40;99.90;;;;;;5036077;28;20528;-72
2022/07/22 05:47:39;;;;;;;9.20;3.58;;;14.40;99.90;;;;;;5063801;28;20043;-71
2022/07/22 05:50:05;;;;;;;10.15;3.70;;;14.40;99.90;;;;;;5058627;28;20033;-72
2022/07/22 05:52:31;;;;;;;11.07;5.20;;;14.40;99.90;;;;;;5042681;28;20483;-71
2022/07/22 05:55:00;;;;;;;12.93;4.78;;;14.50;99.90;;;;;;5035231;28;20067;-72
2022/07/22 05:57:26;;;;;;;8.30;3.58;;;14.50;99.90;;;;;;5060756;28;20040;-72
2022/07/22 05:59:51;;;;;;;12.07;3.75;;;14.50;99.90;;;;;;5041021;28;20032;-71
2022/07/22 06:02:17;;;;;;;8.95;3.30;;;14.50;99.90;;;;;;5062629;28;20036;-72
2022/07/22 06:04:43;;;;;;;8.57;3.80;;;14.60;99.90;;;;;;5065633;28;20094;-72
2022/07/22 06:07:08;;;;;;;8.57;3.95;;;14.60;99.90;;;;;;5035452;28;20028;-71
2022/07/22 06:09:34;;;;;;;7.47;3.42;;;14.60;99.90;;;;;;5048094;28;20463;-72
2022/07/22 06:12:00;;;;;;;15.40;3.80;;;14.60;99.90;;;;;;5041407;28;20467;-72
2022/07/22 06:14:26;;;;;;;39.30;4.43;;;14.60;99.90;;;;;;5029755;28;20494;-71
2022/07/22 06:16:54;;;;;;;9.25;3.78;;;14.60;99.90;;;;;;5045579;28;20087;-71
2022/07/22 06:19:20;;;;;;;8.13;3.45;;;14.60;99.90;;;;;;5032670;28;20047;-74
2022/07/22 06:21:46;;;;;;;6.03;3.60;;;14.70;99.90;;;;;;5025970;28;20044;-75
2022/07/22 06:24:11;;;;;;;5.60;3.33;;;14.70;99.90;;;;;;5041582;28;20032;-74
2022/07/22 06:26:37;;;;;;;6.60;3.00;;;14.70;99.90;;;;;;5044289;28;20041;-74
2022/07/22 06:29:03;;;;;;;7.35;3.22;;;14.80;99.90;;;;;;5052626;28;20036;-74
2022/07/22 06:31:28;;;;;;;7.80;3.25;;;14.80;99.90;;;;;;5040222;28;20041;-74
2022/07/22 06:33:54;;;;;;;12.32;3.20;;;14.80;99.90;;;;;;5039990;28;20103;-74
2022/07/22 06:36:20;;;;;;;10.15;3.00;;;14.80;99.90;;;;;;5036631;28;20077;-74
2022/07/22 06:38:46;;;;;;;8.00;3.17;;;14.80;99.90;;;;;;5039828;28;20109;-74
2022/07/22 06:41:18;;;;;;;13.20;3.83;;;14.80;99.90;;;;;;5052084;28;20041;-74
2022/07/22 06:43:44;;;;;;;10.02;3.10;;;14.80;99.90;;;;;;5072997;28;20040;-74
2022/07/22 06:46:09;;;;;;;8.48;2.80;;;14.80;99.90;;;;;;5038503;28;20048;-74
2022/07/22 06:48:35;;;;;;;9.93;3.17;;;14.80;99.90;;;;;;5037582;28;20044;-74
2022/07/22 06:51:00;;;;;;;6.80;2.90;;;14.80;99.90;;;;;;5062906;28;20119;-74
2022/07/22 06:53:26;;;;;;;9.20;3.45;;;14.90;99.90;;;;;;5056745;28;20048;-74
2022/07/22 06:55:52;;;;;;;5.90;2.80;;;14.90;99.90;;;;;;5052112;28;20044;-74
2022/07/22 06:58:18;;;;;;;5.53;2.60;;;14.90;99.90;;;;;;5037599;28;20047;-71
2022/07/22 07:00:43;;;;;;;11.05;2.80;;;15.00;99.90;;;;;;5038900;28;20063;-71
2022/07/22 07:03:10;;;;;;;9.10;3.17;;;15.00;99.90;;;;;;5039262;28;20119;-71
2022/07/22 07:05:36;;;;;;;4.72;2.40;;;15.00;99.90;;;;;;5037686;28;20132;-71
2022/07/22 07:08:01;;;;;;;9.73;2.70;;;15.00;99.90;;;;;;5054920;28;20408;-71
2022/07/22 07:10:27;;;;;;;8.35;3.00;;;15.00;99.90;;;;;;5055324;28;20036;-71
2022/07/22 07:12:57;;;;;;;9.20;2.63;;;15.00;99.90;;;;;;5055187;28;20051;-75
2022/07/22 07:15:24;;;;;;;6.78;2.72;;;15.00;99.90;;;;;;5035367;28;20122;-75
2022/07/22 07:17:50;;;;;;;4.93;2.80;;;15.00;99.90;;;;;;5049597;28;20123;-75
2022/07/22 07:20:16;;;;;;;11.23;2.80;;;15.00;99.90;;;;;;5036973;28;20044;-75
2022/07/22 07:22:44;;;;;;;8.13;2.60;;;15.10;99.90;;;;;;5052478;28;20044;-75
2022/07/22 07:25:10;;;;;;;7.53;2.67;;;15.10;99.90;;;;;;5053414;28;20043;-75
2022/07/22 07:27:36;;;;;;;5.82;2.50;;;15.10;99.90;;;;;;5051882;28;20032;-75
2022/07/22 07:30:04;;;;;;;11.15;2.90;;;15.00;99.90;;;;;;5053083;28;20037;-75
2022/07/22 07:32:29;;;;;;;8.95;2.97;;;15.10;99.90;;;;;;5051208;28;20033;-75
2022/07/22 07:34:55;;;;;;;5.85;3.22;;;15.10;99.90;;;;;;5032038;28;20041;-75
2022/07/22 07:37:21;;;;;;;3.55;2.20;;;15.10;99.90;;;;;;5034314;28;20028;-72
2022/07/22 07:40:08;;;;;;;7.40;2.67;;;15.10;99.90;;;;;;5059787;28;20032;-72
2022/07/22 07:42:34;;;;;;;6.07;2.22;;;15.10;99.90;;;;;;5043450;28;20044;-72
2022/07/22 07:45:00;;;;;;;9.55;2.88;;;15.20;99.90;;;;;;5048308;28;20048;-72
2022/07/22 07:47:26;;;;;;;8.15;2.58;;;15.30;99.90;;;;;;5045854;28;20036;-72
2022/07/22 07:49:51;;;;;;;5.95;2.60;;;15.30;99.90;;;;;;5045691;28;20041;-72
2022/07/22 07:52:17;;;;;;;11.50;2.55;;;15.30;99.90;;;;;;5059589;28;20036;-72
2022/07/22 07:54:44;;;;;;;5.53;3.00;;;15.30;99.90;;;;;;5061088;28;20067;-72
2022/07/22 07:57:10;;;;;;;9.77;2.60;;;15.30;99.90;;;;;;5053518;28;20028;-72
2022/07/22 07:59:37;;;;;;;7.78;2.67;;;15.30;99.90;;;;;;5058991;28;20052;-72
2022/07/22 08:02:03;;;;;;;6.35;2.47;;;15.30;99.90;;;;;;5038572;28;20044;-71
2022/07/22 08:04:29;;;;;;;8.18;2.65;;;15.40;99.90;;;;;;5026898;28;20046;-72
2022/07/22 08:06:55;;;;;;;5.80;2.20;;;15.40;99.90;;;;;;5055806;28;20039;-71
2022/07/22 08:09:21;;;;;;;6.45;2.00;;;15.50;99.90;;;;;;5046408;28;20177;-71
2022/07/22 08:11:46;;;;;;;3.72;2.13;;;15.50;99.90;;;;;;5055486;28;22019;-71
2022/07/22 08:14:12;;;;;;;4.88;2.55;;;15.40;99.90;;;;;;5043539;28;20044;-72
2022/07/22 08:16:38;;;;;;;5.85;2.67;;;15.40;99.90;;;;;;5038891;28;20044;-71
2022/07/22 08:19:04;;;;;;;7.50;2.50;;;15.40;99.90;;;;;;5058435;28;20040;-71
2022/07/22 08:21:29;;;;;;;7.93;3.28;;;15.40;99.90;;;;;;5049382;28;20048;-72
2022/07/22 08:23:55;;;;;;;8.43;1.98;;;15.40;99.90;;;;;;4997573;28;20055;-72
2022/07/22 08:26:21;;;;;;;7.25;2.42;;;15.40;99.90;;;;;;5029977;28;20059;-73
2022/07/22 08:28:47;;;;;;;7.82;2.75;;;15.40;99.90;;;;;;5033893;28;20036;-72
2022/07/22 08:31:13;;;;;;;5.07;2.40;;;15.40;99.90;;;;;;5033322;28;20130;-72
2022/07/22 08:33:42;;;;;;;3.92;2.00;;;15.40;99.90;;;;;;5032714;28;20052;-72
2022/07/22 08:36:08;;;;;;;7.22;2.63;;;15.40;99.90;;;;;;5027264;28;20049;-73
2022/07/22 08:38:34;;;;;;;7.72;2.28;;;15.50;99.90;;;;;;5032862;28;20250;-72
2022/07/22 08:41:02;;;;;;;5.63;2.15;;;15.50;99.90;;;;;;5037379;28;20405;-72
2022/07/22 08:43:28;;;;;;;5.45;1.90;;;15.50;99.90;;;;;;5049253;28;20559;-72
2022/07/22 08:45:54;;;;;;;7.57;2.45;;;15.60;99.90;;;;;;5028135;28;20044;-73
2022/07/22 08:48:19;;;;;;;4.45;2.20;;;15.70;99.90;;;;;;5001098;28;20090;-73
2022/07/22 08:50:45;;;;;;;5.82;2.00;;;15.80;99.90;;;;;;5030659;28;20037;-72
2022/07/22 08:53:12;;;;;;;5.15;1.60;;;15.80;99.90;;;;;;5014848;28;20038;-73
2022/07/22 08:55:46;;;;;;;4.55;1.83;;;16.00;99.90;;;;;;5046055;28;20506;-72
2022/07/22 08:58:12;;;;;;;5.53;1.90;;;16.00;99.90;;;;;;5024085;28;20071;-72
2022/07/22 09:00:38;;;;;;;7.40;2.10;;;16.00;99.90;;;;;;5043855;28;20694;-72
2022/07/22 09:03:27;;;;;;;4.68;1.95;;;16.00;99.90;;;;;;5044179;28;20388;-73
2022/07/22 09:05:54;;;;;;;4.93;2.08;;;15.90;99.90;;;;;;5044985;28;20151;-72
2022/07/22 09:08:21;;;;;;;4.50;1.83;;;15.90;99.90;;;;;;5027775;28;20036;-72
2022/07/22 09:10:47;;;;;;;3.38;2.25;;;15.90;99.90;;;;;;5028763;28;20094;-72
2022/07/22 09:13:15;;;;;;;6.18;2.67;;;15.80;99.90;;;;;;5044788;28;20040;-72
2022/07/22 09:15:50;;;;;;;6.70;2.28;;;15.80;99.90;;;;;;5046958;28;20045;-72
2022/07/22 09:18:16;;;;;;;6.82;2.38;;;15.80;99.90;;;;;;5026421;28;20048;-72
2022/07/22 09:20:43;;;;;;;7.75;2.22;;;15.80;99.90;;;;;;5028471;28;20043;-72
2022/07/22 09:23:20;;;;;;;4.95;2.15;;;15.90;99.90;;;;;;5030435;28;20040;-72
2022/07/22 09:25:46;;;;;;;5.65;2.20;;;15.90;99.90;;;;;;5044839;28;20551;-72
2022/07/22 09:28:16;;;;;;;6.78;2.40;;;16.00;99.90;;;;;;5044276;28;20040;-72
2022/07/22 09:30:47;;;;;;;6.50;2.63;;;16.10;99.90;;;;;;5044404;28;20083;-72
2022/07/22 09:33:12;;;;;;;5.57;2.08;;;16.20;99.90;;;;;;5027877;28;20044;-72
2022/07/22 09:35:41;;;;;;;3.97;2.25;;;16.10;99.90;;;;;;5041689;28;20052;-72
2022/07/22 09:38:09;;;;;;;7.22;1.95;;;16.20;99.90;;;;;;5057595;28;20501;-73
2022/07/22 09:40:46;;;;;;;8.02;2.60;;;16.20;99.90;;;;;;5027987;28;20409;-72
2022/07/22 09:43:18;;;;;;;5.97;2.08;;;16.10;99.90;;;;;;5028810;28;20044;-72
2022/07/22 09:46:05;;;;;;;7.10;2.00;;;16.10;99.90;;;;;;5044778;28;20040;-72
2022/07/22 09:48:30;;;;;;;5.35;2.08;;;16.10;99.90;;;;;;5040065;28;20060;-72
2022/07/22 09:50:57;;;;;;;4.05;2.10;;;16.10;99.90;;;;;;5009603;28;20048;-72
2022/07/22 09:53:27;;;;;;;5.35;2.00;;;16.10;99.90;;;;;;5027605;28;20071;-72
2022/07/22 09:55:53;;;;;;;3.90;2.20;;;16.10;99.90;;;;;;5044793;28;20058;-72
2022/07/22 09:58:19;;;;;;;8.68;2.38;;;16.10;99.90;;;;;;5044560;28;20048;-72
2022/07/22 10:00:45;;;;;;;5.03;2.10;;;16.10;99.90;;;;;;5012141;28;20043;-72
2022/07/22 10:03:16;;;;;;;6.13;2.05;;;16.20;99.90;;;;;;5046093;28;20397;-72
2022/07/22 10:05:42;;;;;;;5.05;2.50;;;16.20;99.90;;;;;;5062020;28;20410;-72
2022/07/22 10:08:09;;;;;;;4.40;2.10;;;16.20;99.90;;;;;;5044669;28;20510;-72
2022/07/22 10:10:37;;;;;;;5.88;2.55;;;16.30;99.90;;;;;;5043265;28;20048;-72
2022/07/22 10:13:04;;;;;;;5.72;2.28;;;16.40;99.90;;;;;;5027246;28;20036;-72
2022/07/22 10:15:32;;;;;;;5.05;2.30;;;16.40;99.90;;;;;;5024484;28;20115;-72
2022/07/22 10:18:00;;;;;;;6.25;2.42;;;16.50;99.90;;;;;;5023844;28;20091;-72
2022/07/22 10:20:29;;;;;;;4.38;2.10;;;16.60;99.90;;;;;;5027310;28;20063;-72
2022/07/22 10:23:01;;;;;;;4.53;2.05;;;16.70;99.90;;;;;;5043918;28;20510;-72
2022/07/22 10:25:47;;;;;;;5.67;2.23;;;16.70;99.90;;;;;;5044007;28;20097;-73
2022/07/22 10:28:25;;;;;;;5.07;2.20;;;16.80;99.90;;;;;;5028905;28;20052;-73
2022/07/22 10:30:52;;;;;;;5.07;2.25;;;16.90;99.90;;;;;;5044807;28;20482;-72
2022/07/22 10:33:19;;;;;;;5.28;2.20;;;17.00;99.90;;;;;;5043727;28;20072;-72
2022/07/22 10:35:57;;;;;;;7.90;2.33;;;17.10;99.90;;;;;;5062526;28;20574;-72
2022/07/22 10:38:23;;;;;;;4.43;2.28;;;17.20;99.90;;;;;;5044298;28;20451;-72
2022/07/22 10:41:30;;;;;;;5.97;2.30;;;17.20;99.90;;;;;;5044410;28;20513;-73
2022/07/22 10:43:55;;;;;;;10.85;2.47;;;17.20;99.90;;;;;;5027749;28;20071;-73
2022/07/22 10:46:47;;;;;;;5.75;2.65;;;17.30;99.90;;;;;;5025939;28;20064;-73
2022/07/22 10:49:16;;;;;;;3.85;2.00;;;17.30;99.90;;;;;;5027124;28;20268;-73
2022/07/22 10:52:08;;;;;;;6.03;2.03;;;17.20;99.90;;;;;;5027740;28;20052;-72
2022/07/22 10:54:54;;;;;;;;;;;17.20;99.90;;;;;;5044381;28;20130;-73
2022/07/22 10:57:30;;;;;;;7.68;2.35;;;17.20;99.90;;;;;;5027477;28;20289;-72
2022/07/22 10:59:56;;;;;;;7.82;2.65;;;17.20;99.90;;;;;;5043931;28;20563;-73
2022/07/22 11:02:23;;;;;;;2.92;2.00;;;17.10;99.90;;;;;;5027816;28;20037;-72
2022/07/22 11:04:49;;;;;;;2.67;2.10;;;17.10;99.90;;;;;;5032571;28;20032;-72
2022/07/22 11:07:15;;;;;;;3.88;1.90;;;17.10;99.90;;;;;;5031514;28;20044;-73
2022/07/22 11:09:40;;;;;;;4.22;2.00;;;17.10;99.90;;;;;;5014049;28;20047;-73
2022/07/22 11:12:12;;;;;;;5.70;1.92;;;17.10;99.90;;;;;;5031401;28;20036;-73
2022/07/22 11:14:38;;;;;;;5.57;2.10;;;17.10;99.90;;;;;;5047484;28;20036;-72
2022/07/22 11:17:06;;;;;;;7.18;2.58;;;17.10;99.90;;;;;;5030237;28;20051;-73
2022/07/22 11:19:32;;;;;;;2.97;1.88;;;17.20;99.90;;;;;;5047152;28;20040;-72
2022/07/22 11:22:05;;;;;;;5.47;2.40;;;17.30;99.90;;;;;;5030623;28;20048;-73
2022/07/22 11:24:32;;;;;;;5.20;2.30;;;17.30;99.90;;;;;;5029919;28;20418;-73
2022/07/22 11:26:59;;;;;;;4.15;2.30;;;17.40;99.90;;;;;;5047875;28;20036;-73
2022/07/22 11:29:33;;;;;;;4.15;1.92;;;17.40;99.90;;;;;;5046447;28;20040;-73
2022/07/22 11:32:00;;;;;;;4.10;2.10;;;17.40;99.90;;;;;;5030339;28;20090;-72
2022/07/22 11:34:27;;;;;;;6.20;2.83;;;17.40;99.90;;;;;;5046585;28;20049;-73
2022/07/22 11:36:54;;;;;;;5.80;2.75;;;17.40;99.90;;;;;;5029138;28;20039;-73
2022/07/22 11:39:28;;;;;;;4.10;2.30;;;17.40;99.90;;;;;;5046457;28;20097;-73
2022/07/22 11:41:56;;;;;;;4.80;2.40;;;17.30;99.90;;;;;;5046669;28;20111;-73
2022/07/22 11:44:24;;;;;;;5.70;2.20;;;17.30;99.90;;;;;;5047048;28;20029;-73
2022/07/22 11:46:51;;;;;;;3.88;2.35;;;17.30;99.90;;;;;;5028490;28;20040;-73
2022/07/22 11:49:19;;;;;;;3.70;1.95;;;17.30;99.90;;;;;;5045361;28;20040;-72
2022/07/22 11:51:45;;;;;;;6.53;2.53;;;17.40;99.90;;;;;;5046408;28;20524;-73
2022/07/22 11:54:11;;;;;;;5.30;2.55;;;17.50;99.90;;;;;;5030017;28;20044;-73
2022/07/22 11:56:37;;;;;;;3.28;2.10;;;17.50;99.90;;;;;;5029345;28;20047;-73
2022/07/22 11:59:04;;;;;;;5.70;2.60;;;17.50;99.90;;;;;;5013846;28;20032;-73
2022/07/22 12:01:35;;;;;;;5.50;2.10;;;17.60;99.90;;;;;;5062858;28;20094;-73
2022/07/22 12:04:08;;;;;;;4.85;2.90;;;17.70;99.90;;;;;;5046148;28;20046;-73
2022/07/22 12:06:37;;;;;;;5.60;2.70;;;17.60;99.90;;;;;;5045648;28;20029;-73
2022/07/22 12:09:10;;;;;;;6.45;2.42;;;17.50;99.90;;;;;;5062610;28;20064;-73
2022/07/22 12:11:39;;;;;;;4.93;2.17;;;17.50;99.90;;;;;;5029789;28;20052;-73
2022/07/22 12:14:11;;;;;;;5.43;2.45;;;17.40;99.90;;;;;;5028227;28;20052;-73
2022/07/22 12:16:37;;;;;;;3.58;2.35;;;17.40;99.90;;;;;;5044909;28;20036;-73
2022/07/22 12:19:14;;;;;;;5.93;2.50;;;17.40;99.90;;;;;;5047567;28;20386;-73
2022/07/22 12:21:54;;;;;;;4.80;2.75;;;17.50;99.90;;;;;;5040087;28;20490;-72
2022/07/22 12:24:33;;;;;;;11.32;2.58;;;17.50;99.90;;;;;;5047821;28;20077;-73
2022/07/22 12:27:05;;;;;;;5.95;2.05;;;17.50;99.90;;;;;;5040460;28;20047;-73
2022/07/22 12:29:51;;;;;;;4.30;2.17;;;17.60;99.90;;;;;;5031767;28;20470;-73
2022/07/22 12:32:23;;;;;;;4.40;2.47;;;17.60;99.90;;;;;;5032263;28;20044;-72
2022/07/22 12:34:57;;;;;;;5.55;2.17;;;17.70;99.90;;;;;;5032009;28;20088;-73
2022/07/22 12:37:27;;;;;;;6.82;2.25;;;17.70;99.90;;;;;;5049040;28;20481;-73
2022/07/22 12:40:28;;;;;;;4.60;2.13;;;17.80;99.90;;;;;;5046769;28;20124;-73
2022/07/22 12:43:07;;;;;;;2.35;1.90;;;17.90;99.90;;;;;;4957136;28;20050;-73
2022/07/22 12:45:36;;;;;;;5.43;2.38;;;17.90;99.90;;;;;;5035987;28;20498;-73